sensor_id;sensor_type;location;lat;lon;timestamp;P1;durP1;ratioP1;P2;durP2;ratioP2
28623;SDS011;15813;46.932;19.658;2023-05-10T00:00:14;76.35;;;71.07;;
28623;SDS011;15813;46.932;19.658;2023-05-10T00:02:39;80.88;;;74.72;;
28623;SDS011;15813;46.932;19.658;2023-05-10T00:05:05;85.82;;;79.47;;
28623;SDS011;15813;46.932;19.658;2023-05-10T00:07:31;94.10;;;87.30;;
28623;SDS011;15813;46.932;19.658;2023-05-10T00:09:56;96.95;;;90.20;;
28623;SDS011;15813;46.932;19.658;2023-05-10T00:12:21;94.72;;;87.68;;
28623;SDS011;15813;46.932;19.658;2023-05-10T00:14:46;93.32;;;86.45;;
28623;SDS011;15813;46.932;19.658;2023-05-10T00:17:12;92.88;;;86.10;;
28623;SDS011;15813;46.932;19.658;2023-05-10T00:19:37;97.40;;;89.93;;
28623;SDS011;15813;46.932;19.658;2023-05-10T00:22:02;78.93;;;73.10;;
28623;SDS011;15813;46.932;19.658;2023-05-10T00:24:28;93.60;;;86.50;;
28623;SDS011;15813;46.932;19.658;2023-05-10T00:26:53;100.45;;;93.28;;
28623;SDS011;15813;46.932;19.658;2023-05-10T00:29:18;91.45;;;84.38;;
28623;SDS011;15813;46.932;19.658;2023-05-10T00:31:44;119.47;;;110.22;;
28623;SDS011;15813;46.932;19.658;2023-05-10T00:34:09;97.35;;;89.38;;
28623;SDS011;15813;46.932;19.658;2023-05-10T00:36:35;113.70;;;104.95;;
28623;SDS011;15813;46.932;19.658;2023-05-10T00:39:00;109.22;;;100.68;;
28623;SDS011;15813;46.932;19.658;2023-05-10T00:41:25;111.85;;;103.05;;
28623;SDS011;15813;46.932;19.658;2023-05-10T00:43:51;97.55;;;89.78;;
28623;SDS011;15813;46.932;19.658;2023-05-10T00:46:16;110.47;;;101.82;;
28623;SDS011;15813;46.932;19.658;2023-05-10T00:48:42;115.10;;;105.95;;
28623;SDS011;15813;46.932;19.658;2023-05-10T00:51:08;124.35;;;113.90;;
28623;SDS011;15813;46.932;19.658;2023-05-10T00:53:34;109.07;;;100.30;;
28623;SDS011;15813;46.932;19.658;2023-05-10T00:55:59;117.63;;;108.20;;
28623;SDS011;15813;46.932;19.658;2023-05-10T00:58:25;112.35;;;103.03;;
28623;SDS011;15813;46.932;19.658;2023-05-10T01:00:53;119.28;;;109.95;;
28623;SDS011;15813;46.932;19.658;2023-05-10T01:03:19;124.32;;;113.93;;
28623;SDS011;15813;46.932;19.658;2023-05-10T01:05:44;130.13;;;118.72;;
28623;SDS011;15813;46.932;19.658;2023-05-10T01:08:10;124.32;;;113.60;;
28623;SDS011;15813;46.932;19.658;2023-05-10T01:10:35;119.53;;;109.65;;
28623;SDS011;15813;46.932;19.658;2023-05-10T01:13:00;129.45;;;118.30;;
28623;SDS011;15813;46.932;19.658;2023-05-10T01:15:26;129.23;;;118.00;;
28623;SDS011;15813;46.932;19.658;2023-05-10T01:17:51;115.25;;;105.68;;
28623;SDS011;15813;46.932;19.658;2023-05-10T01:20:17;137.20;;;125.28;;
28623;SDS011;15813;46.932;19.658;2023-05-10T01:38:59;130.60;;;118.78;;
28623;SDS011;15813;46.932;19.658;2023-05-10T01:44:34;115.30;;;105.65;;
28623;SDS011;15813;46.932;19.658;2023-05-10T01:49:55;125.30;;;114.15;;
28623;SDS011;15813;46.932;19.658;2023-05-10T01:52:30;129.30;;;117.55;;
28623;SDS011;15813;46.932;19.658;2023-05-10T01:55:04;120.35;;;109.80;;
28623;SDS011;15813;46.932;19.658;2023-05-10T01:57:34;127.07;;;115.85;;
28623;SDS011;15813;46.932;19.658;2023-05-10T02:00:00;116.63;;;106.70;;
28623;SDS011;15813;46.932;19.658;2023-05-10T02:02:28;113.97;;;104.68;;
28623;SDS011;15813;46.932;19.658;2023-05-10T02:04:54;124.22;;;113.20;;
28623;SDS011;15813;46.932;19.658;2023-05-10T02:07:21;122.03;;;111.50;;
28623;SDS011;15813;46.932;19.658;2023-05-10T02:09:46;126.43;;;115.43;;
28623;SDS011;15813;46.932;19.658;2023-05-10T02:12:13;117.32;;;106.43;;
28623;SDS011;15813;46.932;19.658;2023-05-10T02:14:38;111.18;;;102.50;;
28623;SDS011;15813;46.932;19.658;2023-05-10T02:17:05;113.90;;;104.05;;
28623;SDS011;15813;46.932;19.658;2023-05-10T02:19:31;108.63;;;99.70;;
28623;SDS011;15813;46.932;19.658;2023-05-10T02:21:57;107.60;;;98.75;;
28623;SDS011;15813;46.932;19.658;2023-05-10T02:24:23;112.15;;;102.78;;
28623;SDS011;15813;46.932;19.658;2023-05-10T02:26:49;120.40;;;110.00;;
28623;SDS011;15813;46.932;19.658;2023-05-10T02:29:16;118.30;;;108.85;;
28623;SDS011;15813;46.932;19.658;2023-05-10T02:31:42;111.10;;;101.53;;
28623;SDS011;15813;46.932;19.658;2023-05-10T02:34:08;118.32;;;107.72;;
28623;SDS011;15813;46.932;19.658;2023-05-10T02:36:35;112.03;;;102.32;;
28623;SDS011;15813;46.932;19.658;2023-05-10T02:39:01;121.45;;;110.50;;
28623;SDS011;15813;46.932;19.658;2023-05-10T02:41:26;113.90;;;104.03;;
28623;SDS011;15813;46.932;19.658;2023-05-10T02:43:52;103.32;;;94.68;;
28623;SDS011;15813;46.932;19.658;2023-05-10T02:46:20;118.50;;;107.45;;
28623;SDS011;15813;46.932;19.658;2023-05-10T02:48:46;122.20;;;110.70;;
28623;SDS011;15813;46.932;19.658;2023-05-10T02:51:11;119.32;;;108.47;;
28623;SDS011;15813;46.932;19.658;2023-05-10T02:53:38;129.75;;;116.22;;
28623;SDS011;15813;46.932;19.658;2023-05-10T02:56:07;129.25;;;116.03;;
28623;SDS011;15813;46.932;19.658;2023-05-10T02:58:37;129.88;;;116.35;;
28623;SDS011;15813;46.932;19.658;2023-05-10T03:01:02;133.95;;;118.93;;
28623;SDS011;15813;46.932;19.658;2023-05-10T03:03:27;130.23;;;116.63;;
28623;SDS011;15813;46.932;19.658;2023-05-10T03:05:53;124.15;;;111.72;;
28623;SDS011;15813;46.932;19.658;2023-05-10T03:08:20;127.85;;;114.57;;
28623;SDS011;15813;46.932;19.658;2023-05-10T03:10:59;125.25;;;112.13;;
28623;SDS011;15813;46.932;19.658;2023-05-10T03:16:12;121.18;;;108.47;;
28623;SDS011;15813;46.932;19.658;2023-05-10T03:18:50;116.85;;;103.35;;
28623;SDS011;15813;46.932;19.658;2023-05-10T03:23:50;132.33;;;104.87;;
28623;SDS011;15813;46.932;19.658;2023-05-10T03:26:26;138.73;;;109.15;;
28623;SDS011;15813;46.932;19.658;2023-05-10T03:28:51;139.40;;;115.38;;
28623;SDS011;15813;46.932;19.658;2023-05-10T03:31:17;147.18;;;120.32;;
28623;SDS011;15813;46.932;19.658;2023-05-10T03:33:46;143.63;;;116.65;;
28623;SDS011;15813;46.932;19.658;2023-05-10T03:38:37;130.13;;;104.55;;
28623;SDS011;15813;46.932;19.658;2023-05-10T03:41:02;114.60;;;102.05;;
28623;SDS011;15813;46.932;19.658;2023-05-10T03:43:27;123.75;;;109.15;;
28623;SDS011;15813;46.932;19.658;2023-05-10T03:45:53;123.88;;;109.32;;
28623;SDS011;15813;46.932;19.658;2023-05-10T03:48:18;127.78;;;110.20;;
28623;SDS011;15813;46.932;19.658;2023-05-10T03:50:44;112.70;;;100.88;;
28623;SDS011;15813;46.932;19.658;2023-05-10T03:53:09;121.50;;;108.60;;
28623;SDS011;15813;46.932;19.658;2023-05-10T03:55:34;117.50;;;105.38;;
28623;SDS011;15813;46.932;19.658;2023-05-10T03:58:01;119.53;;;106.93;;
28623;SDS011;15813;46.932;19.658;2023-05-10T04:00:26;112.93;;;101.90;;
28623;SDS011;15813;46.932;19.658;2023-05-10T04:02:51;120.18;;;107.90;;
28623;SDS011;15813;46.932;19.658;2023-05-10T04:05:17;127.90;;;114.68;;
28623;SDS011;15813;46.932;19.658;2023-05-10T04:07:42;128.95;;;116.22;;
28623;SDS011;15813;46.932;19.658;2023-05-10T04:10:09;116.15;;;105.28;;
28623;SDS011;15813;46.932;19.658;2023-05-10T04:12:34;133.18;;;120.90;;
28623;SDS011;15813;46.932;19.658;2023-05-10T04:14:59;116.88;;;107.03;;
28623;SDS011;15813;46.932;19.658;2023-05-10T04:17:25;126.72;;;116.15;;
28623;SDS011;15813;46.932;19.658;2023-05-10T04:19:50;129.68;;;119.00;;
28623;SDS011;15813;46.932;19.658;2023-05-10T04:22:18;129.15;;;118.75;;
28623;SDS011;15813;46.932;19.658;2023-05-10T04:24:43;133.88;;;123.13;;
28623;SDS011;15813;46.932;19.658;2023-05-10T04:27:08;99.22;;;92.07;;
28623;SDS011;15813;46.932;19.658;2023-05-10T04:29:33;121.80;;;112.35;;
28623;SDS011;15813;46.932;19.658;2023-05-10T04:31:59;112.63;;;104.60;;
28623;SDS011;15813;46.932;19.658;2023-05-10T04:34:24;123.63;;;114.72;;
28623;SDS011;15813;46.932;19.658;2023-05-10T04:36:50;139.63;;;129.35;;
28623;SDS011;15813;46.932;19.658;2023-05-10T04:39:15;106.95;;;99.45;;
28623;SDS011;15813;46.932;19.658;2023-05-10T04:41:41;134.50;;;124.50;;
28623;SDS011;15813;46.932;19.658;2023-05-10T04:44:06;147.57;;;136.50;;
28623;SDS011;15813;46.932;19.658;2023-05-10T04:46:31;106.97;;;99.18;;
28623;SDS011;15813;46.932;19.658;2023-05-10T04:48:56;119.18;;;110.95;;
28623;SDS011;15813;46.932;19.658;2023-05-10T04:51:22;116.20;;;108.10;;
28623;SDS011;15813;46.932;19.658;2023-05-10T04:53:47;129.05;;;119.35;;
28623;SDS011;15813;46.932;19.658;2023-05-10T04:56:12;119.70;;;111.18;;
28623;SDS011;15813;46.932;19.658;2023-05-10T04:58:37;126.30;;;117.75;;
28623;SDS011;15813;46.932;19.658;2023-05-10T05:01:07;128.05;;;118.82;;
28623;SDS011;15813;46.932;19.658;2023-05-10T05:05:58;77.65;;;71.63;;
28623;SDS011;15813;46.932;19.658;2023-05-10T05:08:23;60.33;;;54.60;;
28623;SDS011;15813;46.932;19.658;2023-05-10T05:10:49;75.30;;;69.63;;
28623;SDS011;15813;46.932;19.658;2023-05-10T05:13:15;62.13;;;57.63;;
28623;SDS011;15813;46.932;19.658;2023-05-10T05:15:40;84.25;;;77.18;;
28623;SDS011;15813;46.932;19.658;2023-05-10T05:18:05;53.50;;;49.60;;
28623;SDS011;15813;46.932;19.658;2023-05-10T05:20:33;73.60;;;67.47;;
28623;SDS011;15813;46.932;19.658;2023-05-10T05:22:59;91.53;;;84.67;;
28623;SDS011;15813;46.932;19.658;2023-05-10T05:25:24;70.57;;;65.07;;
28623;SDS011;15813;46.932;19.658;2023-05-10T05:27:50;97.97;;;90.95;;
28623;SDS011;15813;46.932;19.658;2023-05-10T05:30:15;75.07;;;69.30;;
28623;SDS011;15813;46.932;19.658;2023-05-10T05:32:40;52.85;;;48.22;;
28623;SDS011;15813;46.932;19.658;2023-05-10T11:08:06;840.95;;;604.92;;
28623;SDS011;15813;46.932;19.658;2023-05-10T11:10:31;841.03;;;595.92;;
28623;SDS011;15813;46.932;19.658;2023-05-10T11:13:01;850.15;;;600.90;;
28623;SDS011;15813;46.932;19.658;2023-05-10T11:15:33;855.58;;;611.17;;
28623;SDS011;15813;46.932;19.658;2023-05-10T11:17:58;847.15;;;591.88;;
28623;SDS011;15813;46.932;19.658;2023-05-10T11:20:26;827.65;;;557.13;;
28623;SDS011;15813;46.932;19.658;2023-05-10T11:22:58;832.90;;;575.42;;
28623;SDS011;15813;46.932;19.658;2023-05-10T11:25:26;842.38;;;597.65;;
28623;SDS011;15813;46.932;19.658;2023-05-10T11:27:52;849.10;;;595.97;;
28623;SDS011;15813;46.932;19.658;2023-05-10T11:30:17;848.92;;;603.55;;
28623;SDS011;15813;46.932;19.658;2023-05-10T11:32:42;843.65;;;588.00;;
28623;SDS011;15813;46.932;19.658;2023-05-10T11:35:08;838.55;;;572.78;;
28623;SDS011;15813;46.932;19.658;2023-05-10T11:37:34;839.45;;;579.20;;
28623;SDS011;15813;46.932;19.658;2023-05-10T11:39:59;840.78;;;580.55;;
28623;SDS011;15813;46.932;19.658;2023-05-10T11:42:25;840.85;;;581.22;;
28623;SDS011;15813;46.932;19.658;2023-05-10T11:44:50;841.80;;;583.42;;
28623;SDS011;15813;46.932;19.658;2023-05-10T11:47:15;832.00;;;578.63;;
28623;SDS011;15813;46.932;19.658;2023-05-10T11:49:44;831.28;;;576.40;;
28623;SDS011;15813;46.932;19.658;2023-05-10T11:52:09;836.20;;;569.40;;
28623;SDS011;15813;46.932;19.658;2023-05-10T11:54:36;828.10;;;567.75;;
28623;SDS011;15813;46.932;19.658;2023-05-10T11:57:01;837.55;;;565.88;;
28623;SDS011;15813;46.932;19.658;2023-05-10T11:59:27;815.95;;;531.20;;
28623;SDS011;15813;46.932;19.658;2023-05-10T12:01:52;815.50;;;526.40;;
28623;SDS011;15813;46.932;19.658;2023-05-10T12:04:18;819.72;;;528.22;;
28623;SDS011;15813;46.932;19.658;2023-05-10T12:06:43;829.00;;;561.97;;
28623;SDS011;15813;46.932;19.658;2023-05-10T12:09:10;826.33;;;534.28;;
28623;SDS011;15813;46.932;19.658;2023-05-10T12:11:39;825.53;;;536.70;;
28623;SDS011;15813;46.932;19.658;2023-05-10T12:14:05;823.13;;;535.80;;
28623;SDS011;15813;46.932;19.658;2023-05-10T12:16:30;830.03;;;553.72;;
28623;SDS011;15813;46.932;19.658;2023-05-10T12:18:57;825.13;;;528.40;;
28623;SDS011;15813;46.932;19.658;2023-05-10T12:21:22;825.38;;;538.08;;
28623;SDS011;15813;46.932;19.658;2023-05-10T12:23:49;808.92;;;486.15;;
28623;SDS011;15813;46.932;19.658;2023-05-10T12:26:14;789.70;;;471.33;;
28623;SDS011;15813;46.932;19.658;2023-05-10T12:28:40;795.85;;;487.83;;
28623;SDS011;15813;46.932;19.658;2023-05-10T12:31:06;805.67;;;508.02;;
28623;SDS011;15813;46.932;19.658;2023-05-10T12:33:38;808.20;;;521.90;;
28623;SDS011;15813;46.932;19.658;2023-05-10T12:36:07;809.95;;;512.67;;
28623;SDS011;15813;46.932;19.658;2023-05-10T12:38:34;813.83;;;537.17;;
28623;SDS011;15813;46.932;19.658;2023-05-10T12:41:00;783.72;;;475.83;;
28623;SDS011;15813;46.932;19.658;2023-05-10T12:43:25;777.95;;;458.60;;
28623;SDS011;15813;46.932;19.658;2023-05-10T12:45:50;784.28;;;469.80;;
28623;SDS011;15813;46.932;19.658;2023-05-10T12:48:16;774.15;;;452.00;;
28623;SDS011;15813;46.932;19.658;2023-05-10T12:50:41;782.25;;;462.27;;
28623;SDS011;15813;46.932;19.658;2023-05-10T12:53:06;785.35;;;465.88;;
28623;SDS011;15813;46.932;19.658;2023-05-10T12:55:32;787.38;;;474.50;;
28623;SDS011;15813;46.932;19.658;2023-05-10T12:57:57;777.45;;;455.88;;
28623;SDS011;15813;46.932;19.658;2023-05-10T13:00:22;779.35;;;449.05;;
28623;SDS011;15813;46.932;19.658;2023-05-10T13:02:48;777.90;;;447.73;;
28623;SDS011;15813;46.932;19.658;2023-05-10T13:05:13;775.03;;;436.88;;
28623;SDS011;15813;46.932;19.658;2023-05-10T13:07:38;773.30;;;434.55;;
28623;SDS011;15813;46.932;19.658;2023-05-10T13:10:04;774.85;;;438.90;;
28623;SDS011;15813;46.932;19.658;2023-05-10T13:12:30;783.70;;;452.55;;
28623;SDS011;15813;46.932;19.658;2023-05-10T13:14:55;779.85;;;461.80;;
28623;SDS011;15813;46.932;19.658;2023-05-10T13:17:20;783.13;;;475.00;;
28623;SDS011;15813;46.932;19.658;2023-05-10T13:19:46;785.75;;;474.60;;
28623;SDS011;15813;46.932;19.658;2023-05-10T13:22:11;787.63;;;473.48;;
28623;SDS011;15813;46.932;19.658;2023-05-10T13:24:36;781.97;;;464.88;;
28623;SDS011;15813;46.932;19.658;2023-05-10T13:27:02;778.85;;;454.05;;
28623;SDS011;15813;46.932;19.658;2023-05-10T13:29:27;775.50;;;448.90;;
28623;SDS011;15813;46.932;19.658;2023-05-10T13:31:52;778.58;;;436.58;;
28623;SDS011;15813;46.932;19.658;2023-05-10T13:34:18;775.58;;;430.40;;
28623;SDS011;15813;46.932;19.658;2023-05-10T13:36:45;775.17;;;432.83;;
28623;SDS011;15813;46.932;19.658;2023-05-10T13:39:10;771.80;;;429.65;;
28623;SDS011;15813;46.932;19.658;2023-05-10T13:41:36;768.55;;;420.75;;
28623;SDS011;15813;46.932;19.658;2023-05-10T13:44:02;766.60;;;413.92;;
28623;SDS011;15813;46.932;19.658;2023-05-10T13:46:27;763.92;;;408.08;;
28623;SDS011;15813;46.932;19.658;2023-05-10T13:48:52;766.30;;;410.15;;
28623;SDS011;15813;46.932;19.658;2023-05-10T13:51:18;765.72;;;406.67;;
28623;SDS011;15813;46.932;19.658;2023-05-10T13:53:43;766.42;;;406.17;;
28623;SDS011;15813;46.932;19.658;2023-05-10T13:56:08;772.05;;;412.45;;
28623;SDS011;15813;46.932;19.658;2023-05-10T13:58:33;771.13;;;421.10;;
28623;SDS011;15813;46.932;19.658;2023-05-10T14:01:00;767.35;;;406.02;;
28623;SDS011;15813;46.932;19.658;2023-05-10T14:03:25;770.80;;;417.90;;
28623;SDS011;15813;46.932;19.658;2023-05-10T14:05:51;769.92;;;419.30;;
28623;SDS011;15813;46.932;19.658;2023-05-10T14:08:16;769.88;;;408.60;;
28623;SDS011;15813;46.932;19.658;2023-05-10T14:10:42;761.45;;;401.45;;
28623;SDS011;15813;46.932;19.658;2023-05-10T14:13:07;765.20;;;403.00;;
28623;SDS011;15813;46.932;19.658;2023-05-10T14:15:33;764.78;;;404.02;;
28623;SDS011;15813;46.932;19.658;2023-05-10T14:17:58;767.35;;;404.05;;
28623;SDS011;15813;46.932;19.658;2023-05-10T14:20:23;762.92;;;401.55;;
28623;SDS011;15813;46.932;19.658;2023-05-10T14:22:49;763.38;;;407.38;;
28623;SDS011;15813;46.932;19.658;2023-05-10T14:25:14;762.28;;;401.23;;
28623;SDS011;15813;46.932;19.658;2023-05-10T14:27:40;764.88;;;415.10;;
28623;SDS011;15813;46.932;19.658;2023-05-10T14:30:05;767.60;;;420.75;;
28623;SDS011;15813;46.932;19.658;2023-05-10T14:32:31;751.42;;;385.02;;
28623;SDS011;15813;46.932;19.658;2023-05-10T14:34:57;767.10;;;409.65;;
28623;SDS011;15813;46.932;19.658;2023-05-10T14:37:22;623.45;;;435.65;;
28623;SDS011;15813;46.932;19.658;2023-05-10T14:39:47;59.65;;;55.90;;
28623;SDS011;15813;46.932;19.658;2023-05-10T14:42:12;79.53;;;74.30;;
28623;SDS011;15813;46.932;19.658;2023-05-10T14:44:38;254.03;;;238.93;;
28623;SDS011;15813;46.932;19.658;2023-05-10T14:47:03;502.90;;;408.00;;
28623;SDS011;15813;46.932;19.658;2023-05-10T14:49:28;286.45;;;267.67;;
28623;SDS011;15813;46.932;19.658;2023-05-10T14:51:54;529.50;;;448.55;;
28623;SDS011;15813;46.932;19.658;2023-05-10T14:54:19;767.25;;;508.63;;
28623;SDS011;15813;46.932;19.658;2023-05-10T14:56:44;536.80;;;394.48;;
28623;SDS011;15813;46.932;19.658;2023-05-10T14:59:10;59.72;;;55.72;;
28623;SDS011;15813;46.932;19.658;2023-05-10T15:01:35;507.33;;;448.17;;
28623;SDS011;15813;46.932;19.658;2023-05-10T15:04:02;341.58;;;307.40;;
28623;SDS011;15813;46.932;19.658;2023-05-10T15:06:31;743.35;;;487.45;;
28623;SDS011;15813;46.932;19.658;2023-05-10T15:08:57;498.73;;;440.52;;
28623;SDS011;15813;46.932;19.658;2023-05-10T15:11:22;149.02;;;140.35;;
28623;SDS011;15813;46.932;19.658;2023-05-10T15:13:47;340.93;;;308.63;;
28623;SDS011;15813;46.932;19.658;2023-05-10T15:16:12;166.20;;;156.55;;
28623;SDS011;15813;46.932;19.658;2023-05-10T15:18:38;548.85;;;465.70;;
28623;SDS011;15813;46.932;19.658;2023-05-10T15:21:03;605.73;;;465.00;;
28623;SDS011;15813;46.932;19.658;2023-05-10T15:23:28;792.17;;;490.17;;
28623;SDS011;15813;46.932;19.658;2023-05-10T15:25:54;699.33;;;480.27;;
28623;SDS011;15813;46.932;19.658;2023-05-10T15:28:20;278.92;;;250.98;;
28623;SDS011;15813;46.932;19.658;2023-05-10T15:30:45;645.03;;;480.98;;
28623;SDS011;15813;46.932;19.658;2023-05-10T15:33:11;717.63;;;489.73;;
28623;SDS011;15813;46.932;19.658;2023-05-10T15:35:36;754.92;;;483.63;;
28623;SDS011;15813;46.932;19.658;2023-05-10T15:38:03;660.92;;;476.88;;
28623;SDS011;15813;46.932;19.658;2023-05-10T15:40:28;779.50;;;455.05;;
28623;SDS011;15813;46.932;19.658;2023-05-10T15:42:53;789.83;;;467.80;;
28623;SDS011;15813;46.932;19.658;2023-05-10T15:45:19;785.75;;;460.48;;
28623;SDS011;15813;46.932;19.658;2023-05-10T15:47:44;742.17;;;442.50;;
28623;SDS011;15813;46.932;19.658;2023-05-10T15:50:10;511.80;;;434.10;;
28623;SDS011;15813;46.932;19.658;2023-05-10T15:52:36;703.33;;;448.73;;
28623;SDS011;15813;46.932;19.658;2023-05-10T15:55:01;651.28;;;456.60;;
28623;SDS011;15813;46.932;19.658;2023-05-10T15:57:28;400.65;;;363.00;;
28623;SDS011;15813;46.932;19.658;2023-05-10T15:59:53;543.78;;;452.92;;
28623;SDS011;15813;46.932;19.658;2023-05-10T16:02:18;157.33;;;148.13;;
28623;SDS011;15813;46.932;19.658;2023-05-10T16:04:43;425.58;;;382.52;;
28623;SDS011;15813;46.932;19.658;2023-05-10T16:07:09;75.65;;;71.20;;
28623;SDS011;15813;46.932;19.658;2023-05-10T16:09:34;454.40;;;410.90;;
28623;SDS011;15813;46.932;19.658;2023-05-10T16:11:59;207.45;;;194.88;;
28623;SDS011;15813;46.932;19.658;2023-05-10T16:14:26;613.47;;;472.23;;
28623;SDS011;15813;46.932;19.658;2023-05-10T16:16:51;484.70;;;434.25;;
28623;SDS011;15813;46.932;19.658;2023-05-10T16:19:17;307.00;;;281.83;;
28623;SDS011;15813;46.932;19.658;2023-05-10T16:21:42;454.52;;;394.73;;
28623;SDS011;15813;46.932;19.658;2023-05-10T16:24:07;468.13;;;423.13;;
28623;SDS011;15813;46.932;19.658;2023-05-10T16:26:33;581.08;;;484.83;;
28623;SDS011;15813;46.932;19.658;2023-05-10T16:29:04;594.85;;;487.80;;
28623;SDS011;15813;46.932;19.658;2023-05-10T16:31:29;570.70;;;483.45;;
28623;SDS011;15813;46.932;19.658;2023-05-10T16:33:55;586.67;;;478.95;;
28623;SDS011;15813;46.932;19.658;2023-05-10T16:36:20;586.33;;;473.13;;
28623;SDS011;15813;46.932;19.658;2023-05-10T16:38:45;579.75;;;470.33;;
28623;SDS011;15813;46.932;19.658;2023-05-10T16:41:11;582.67;;;460.10;;
28623;SDS011;15813;46.932;19.658;2023-05-10T16:43:36;588.67;;;448.60;;
28623;SDS011;15813;46.932;19.658;2023-05-10T16:46:01;578.25;;;449.95;;
28623;SDS011;15813;46.932;19.658;2023-05-10T16:48:27;598.67;;;448.75;;
28623;SDS011;15813;46.932;19.658;2023-05-10T16:50:52;585.35;;;454.33;;
28623;SDS011;15813;46.932;19.658;2023-05-10T16:53:18;599.80;;;451.75;;
28623;SDS011;15813;46.932;19.658;2023-05-10T16:55:43;624.53;;;452.20;;
28623;SDS011;15813;46.932;19.658;2023-05-10T16:58:08;664.60;;;465.20;;
28623;SDS011;15813;46.932;19.658;2023-05-10T17:00:33;616.72;;;442.45;;
28623;SDS011;15813;46.932;19.658;2023-05-10T17:02:59;636.17;;;419.58;;
28623;SDS011;15813;46.932;19.658;2023-05-10T17:05:25;621.60;;;421.83;;
28623;SDS011;15813;46.932;19.658;2023-05-10T17:07:50;674.15;;;418.92;;
28623;SDS011;15813;46.932;19.658;2023-05-10T17:10:15;718.83;;;409.00;;
28623;SDS011;15813;46.932;19.658;2023-05-10T17:12:41;720.05;;;393.25;;
28623;SDS011;15813;46.932;19.658;2023-05-10T17:15:07;591.42;;;392.13;;
28623;SDS011;15813;46.932;19.658;2023-05-10T17:17:32;652.00;;;408.83;;
28623;SDS011;15813;46.932;19.658;2023-05-10T17:19:58;464.02;;;348.23;;
28623;SDS011;15813;46.932;19.658;2023-05-10T17:22:23;453.02;;;346.17;;
28623;SDS011;15813;46.932;19.658;2023-05-10T17:24:48;662.78;;;414.35;;
28623;SDS011;15813;46.932;19.658;2023-05-10T17:27:14;648.80;;;397.05;;
28623;SDS011;15813;46.932;19.658;2023-05-10T17:29:39;675.83;;;413.35;;
28623;SDS011;15813;46.932;19.658;2023-05-10T17:32:04;664.20;;;407.58;;
28623;SDS011;15813;46.932;19.658;2023-05-10T17:34:29;640.00;;;398.17;;
28623;SDS011;15813;46.932;19.658;2023-05-10T17:36:55;697.30;;;383.30;;
28623;SDS011;15813;46.932;19.658;2023-05-10T17:39:21;383.50;;;344.27;;
28623;SDS011;15813;46.932;19.658;2023-05-10T17:41:46;243.90;;;229.52;;
28623;SDS011;15813;46.932;19.658;2023-05-10T17:44:12;288.30;;;269.17;;
28623;SDS011;15813;46.932;19.658;2023-05-10T17:46:37;696.42;;;410.38;;
28623;SDS011;15813;46.932;19.658;2023-05-10T17:49:03;693.83;;;405.13;;
28623;SDS011;15813;46.932;19.658;2023-05-10T17:51:28;666.65;;;392.52;;
28623;SDS011;15813;46.932;19.658;2023-05-10T17:53:54;662.40;;;389.17;;
28623;SDS011;15813;46.932;19.658;2023-05-10T17:56:19;696.28;;;385.23;;
28623;SDS011;15813;46.932;19.658;2023-05-10T17:58:46;54.92;;;51.47;;
28623;SDS011;15813;46.932;19.658;2023-05-10T18:01:11;64.50;;;60.53;;
28623;SDS011;15813;46.932;19.658;2023-05-10T18:03:36;37.43;;;35.03;;
28623;SDS011;15813;46.932;19.658;2023-05-10T18:06:02;55.03;;;51.72;;
28623;SDS011;15813;46.932;19.658;2023-05-10T18:08:28;62.30;;;58.22;;
28623;SDS011;15813;46.932;19.658;2023-05-10T18:10:54;63.28;;;59.15;;
28623;SDS011;15813;46.932;19.658;2023-05-10T18:13:19;84.82;;;78.93;;
28623;SDS011;15813;46.932;19.658;2023-05-10T18:15:45;90.75;;;84.97;;
28623;SDS011;15813;46.932;19.658;2023-05-10T18:18:10;62.38;;;57.95;;
28623;SDS011;15813;46.932;19.658;2023-05-10T18:20:35;111.95;;;105.47;;
28623;SDS011;15813;46.932;19.658;2023-05-10T18:23:01;121.70;;;114.25;;
28623;SDS011;15813;46.932;19.658;2023-05-10T18:25:26;340.27;;;309.73;;
28623;SDS011;15813;46.932;19.658;2023-05-10T18:27:51;664.38;;;377.10;;
28623;SDS011;15813;46.932;19.658;2023-05-10T18:30:17;703.42;;;355.38;;
28623;SDS011;15813;46.932;19.658;2023-05-10T18:32:42;684.38;;;340.92;;
28623;SDS011;15813;46.932;19.658;2023-05-10T18:35:08;705.20;;;359.17;;
28623;SDS011;15813;46.932;19.658;2023-05-10T18:37:33;700.85;;;361.70;;
28623;SDS011;15813;46.932;19.658;2023-05-10T18:39:59;651.15;;;360.70;;
28623;SDS011;15813;46.932;19.658;2023-05-10T18:42:24;687.58;;;344.58;;
28623;SDS011;15813;46.932;19.658;2023-05-10T18:44:51;687.38;;;341.42;;
28623;SDS011;15813;46.932;19.658;2023-05-10T18:47:16;686.38;;;337.13;;
28623;SDS011;15813;46.932;19.658;2023-05-10T18:49:41;680.20;;;346.52;;
28623;SDS011;15813;46.932;19.658;2023-05-10T18:52:09;689.25;;;342.35;;
28623;SDS011;15813;46.932;19.658;2023-05-10T18:54:34;713.83;;;326.95;;
28623;SDS011;15813;46.932;19.658;2023-05-10T18:57:00;601.53;;;319.65;;
28623;SDS011;15813;46.932;19.658;2023-05-10T18:59:25;592.15;;;332.00;;
28623;SDS011;15813;46.932;19.658;2023-05-10T19:01:51;589.40;;;307.02;;
28623;SDS011;15813;46.932;19.658;2023-05-10T19:04:17;567.00;;;295.80;;
28623;SDS011;15813;46.932;19.658;2023-05-10T19:06:42;304.88;;;259.05;;
28623;SDS011;15813;46.932;19.658;2023-05-10T19:09:07;689.17;;;315.85;;
28623;SDS011;15813;46.932;19.658;2023-05-10T19:11:33;126.78;;;118.18;;
28623;SDS011;15813;46.932;19.658;2023-05-10T19:14:00;424.23;;;255.93;;
28623;SDS011;15813;46.932;19.658;2023-05-10T19:16:25;309.10;;;270.33;;
28623;SDS011;15813;46.932;19.658;2023-05-10T19:18:52;498.13;;;305.38;;
28623;SDS011;15813;46.932;19.658;2023-05-10T19:21:17;429.95;;;295.52;;
28623;SDS011;15813;46.932;19.658;2023-05-10T19:23:43;530.72;;;310.58;;
28623;SDS011;15813;46.932;19.658;2023-05-10T19:26:08;321.90;;;254.32;;
28623;SDS011;15813;46.932;19.658;2023-05-10T19:28:33;709.42;;;307.80;;
28623;SDS011;15813;46.932;19.658;2023-05-10T19:30:59;719.00;;;301.42;;
28623;SDS011;15813;46.932;19.658;2023-05-10T19:33:24;697.58;;;296.25;;
28623;SDS011;15813;46.932;19.658;2023-05-10T19:35:50;464.25;;;311.50;;
28623;SDS011;15813;46.932;19.658;2023-05-10T19:38:18;527.85;;;296.33;;
28623;SDS011;15813;46.932;19.658;2023-05-10T19:40:44;428.30;;;270.75;;
28623;SDS011;15813;46.932;19.658;2023-05-10T19:43:09;633.60;;;308.50;;
28623;SDS011;15813;46.932;19.658;2023-05-10T19:45:35;681.60;;;303.45;;